createdAt,value
2022-10-18T00:00:09.196Z,6.72
2022-10-18T00:02:37.758Z,7.45
2022-10-18T00:05:04.669Z,7.40
2022-10-18T00:07:31.452Z,7.75
2022-10-18T00:09:58.147Z,8.23
2022-10-18T00:12:24.628Z,7.57
2022-10-18T00:14:51.529Z,7.13
2022-10-18T00:17:18.283Z,7.30
2022-10-18T00:19:49.634Z,6.90
2022-10-18T00:22:16.406Z,7.45
2022-10-18T00:24:44.676Z,7.53
2022-10-18T00:27:11.242Z,6.88
2022-10-18T00:29:37.852Z,7.55
2022-10-18T00:32:04.524Z,6.47
2022-10-18T00:34:31.617Z,6.72
2022-10-18T00:36:58.122Z,8.43
2022-10-18T00:39:24.589Z,7.15
2022-10-18T00:41:51.550Z,7.07
2022-10-18T00:44:18.538Z,7.25
2022-10-18T00:46:47.798Z,6.68
2022-10-18T00:49:25.094Z,6.45
2022-10-18T00:52:00.809Z,7.00
2022-10-18T00:54:29.607Z,7.50
2022-10-18T00:56:56.213Z,7.30
2022-10-18T00:59:23.507Z,7.15
2022-10-18T01:01:50.448Z,7.70
2022-10-18T01:04:19.957Z,7.05
2022-10-18T01:07:15.230Z,7.28
2022-10-18T01:09:47.389Z,7.20
2022-10-18T01:12:49.466Z,6.28
2022-10-18T01:15:21.164Z,7.25
2022-10-18T01:18:12.053Z,6.47
2022-10-18T01:21:09.864Z,6.47
2022-10-18T01:24:33.732Z,7.85
2022-10-18T01:27:29.790Z,7.00
2022-10-18T01:30:20.574Z,7.05
2022-10-18T01:32:54.029Z,7.40
2022-10-18T01:35:44.986Z,7.72
2022-10-18T01:38:17.168Z,7.78
2022-10-18T01:40:47.330Z,8.07
2022-10-18T01:43:15.906Z,7.72
2022-10-18T01:45:42.543Z,6.93
2022-10-18T01:48:11.681Z,7.30
2022-10-18T01:50:38.186Z,7.45
2022-10-18T01:53:04.638Z,7.60
2022-10-18T01:55:51.197Z,7.10
2022-10-18T01:58:40.596Z,8.20
2022-10-18T02:01:18.097Z,7.43
2022-10-18T02:03:47.737Z,6.82
2022-10-18T02:06:22.534Z,7.32
2022-10-18T02:09:02.798Z,7.63
2022-10-18T02:11:32.270Z,7.20
2022-10-18T02:14:19.492Z,7.10
2022-10-18T02:16:51.696Z,7.20
2022-10-18T02:19:38.167Z,7.28
2022-10-18T02:22:07.584Z,7.40
2022-10-18T02:24:43.207Z,7.45
2022-10-18T02:27:10.710Z,8.48
2022-10-18T02:29:38.075Z,7.45
2022-10-18T02:32:11.745Z,7.82
2022-10-18T02:34:44.949Z,8.23
2022-10-18T02:37:13.323Z,8.20
2022-10-18T02:39:45.251Z,7.35
2022-10-18T02:42:13.554Z,8.70
2022-10-18T02:44:41.916Z,7.63
2022-10-18T02:47:10.589Z,7.75
2022-10-18T02:49:37.117Z,7.78
2022-10-18T02:52:03.891Z,8.77
2022-10-18T02:54:31.664Z,7.97
2022-10-18T02:56:58.327Z,7.70
2022-10-18T02:59:24.823Z,7.85
2022-10-18T03:01:51.389Z,7.80
2022-10-18T03:04:21.169Z,7.50
2022-10-18T03:06:47.803Z,7.50
2022-10-18T03:09:14.284Z,7.10
2022-10-18T03:11:40.760Z,7.10
2022-10-18T03:14:14.202Z,7.35
2022-10-18T03:16:41.318Z,7.47
2022-10-18T03:19:07.870Z,8.18
2022-10-18T03:21:34.395Z,8.65
2022-10-18T03:24:03.269Z,8.05
2022-10-18T03:26:29.749Z,8.70
2022-10-18T03:28:56.583Z,8.57
2022-10-18T03:31:23.336Z,8.95
2022-10-18T03:33:49.878Z,8.88
2022-10-18T03:36:16.492Z,9.25
2022-10-18T03:38:43.138Z,8.45
2022-10-18T03:41:09.726Z,9.15
2022-10-18T03:43:36.258Z,10.85
2022-10-18T03:46:02.851Z,11.18
2022-10-18T03:48:29.318Z,11.05
2022-10-18T03:50:55.834Z,9.82
2022-10-18T03:53:22.315Z,9.60
2022-10-18T03:55:56.087Z,10.15
2022-10-18T03:58:23.399Z,10.48
2022-10-18T04:00:51.438Z,9.85
2022-10-18T04:03:19.043Z,10.20
2022-10-18T04:05:50.713Z,10.20
2022-10-18T04:08:17.931Z,10.95
2022-10-18T04:10:45.605Z,10.55
2022-10-18T04:13:12.266Z,10.75
2022-10-18T04:15:39.967Z,11.02
2022-10-18T04:18:06.542Z,10.00
2022-10-18T04:20:33.063Z,10.25
2022-10-18T04:22:59.506Z,9.23
2022-10-18T04:25:27.096Z,11.02
2022-10-18T04:27:53.578Z,10.07
2022-10-18T04:30:20.320Z,10.45
2022-10-18T04:32:46.892Z,11.90
2022-10-18T04:35:13.798Z,10.35
2022-10-18T04:37:40.341Z,9.52
2022-10-18T04:40:07.944Z,9.48
2022-10-18T04:42:34.450Z,9.77
2022-10-18T04:45:02.399Z,11.25
2022-10-18T04:47:29.087Z,11.68
2022-10-18T04:49:55.780Z,12.85
2022-10-18T04:52:22.253Z,12.55
2022-10-18T04:54:51.566Z,13.90
2022-10-18T04:57:18.102Z,14.65
2022-10-18T04:59:44.703Z,15.25
2022-10-18T05:02:11.390Z,14.02
2022-10-18T05:04:38.438Z,14.38
2022-10-18T05:07:06.610Z,15.50
2022-10-18T05:09:33.701Z,18.35
2022-10-18T05:12:00.238Z,22.23
2022-10-18T05:14:28.411Z,18.75
2022-10-18T05:16:54.917Z,16.00
2022-10-18T05:19:21.525Z,18.48
2022-10-18T05:21:48.087Z,14.98
2022-10-18T05:24:16.350Z,19.55
2022-10-18T05:26:42.873Z,21.23
2022-10-18T05:29:09.543Z,15.27
2022-10-18T05:31:36.123Z,16.58
2022-10-18T05:34:05.775Z,15.40
2022-10-18T05:36:32.308Z,15.73
2022-10-18T05:39:01.128Z,16.30
2022-10-18T05:41:30.991Z,17.98
2022-10-18T05:44:06.355Z,17.00
2022-10-18T05:48:59.525Z,15.95
2022-10-18T05:51:25.984Z,17.92
2022-10-18T05:54:00.676Z,15.95
2022-10-18T05:56:28.715Z,20.13
2022-10-18T05:58:55.294Z,16.50
2022-10-18T06:01:21.833Z,17.25
2022-10-18T06:03:48.365Z,20.23
2022-10-18T06:06:15.503Z,23.75
2022-10-18T06:08:43.567Z,22.85
2022-10-18T06:11:15.265Z,17.17
2022-10-18T06:13:43.854Z,28.45
2022-10-18T06:16:12.386Z,17.27
2022-10-18T06:18:39.670Z,18.80
2022-10-18T06:21:06.785Z,24.08
2022-10-18T06:23:33.717Z,20.17
2022-10-18T06:26:01.966Z,25.50
2022-10-18T06:28:29.870Z,21.02
2022-10-18T06:30:57.910Z,24.50
2022-10-18T06:33:24.583Z,22.08
2022-10-18T06:35:59.871Z,19.40
2022-10-18T06:40:54.529Z,19.65
2022-10-18T06:43:21.762Z,28.75
2022-10-18T06:45:49.070Z,17.45
2022-10-18T06:48:16.446Z,22.80
2022-10-18T06:50:43.415Z,21.60
2022-10-18T06:53:10.027Z,20.38
2022-10-18T06:55:39.796Z,18.35
2022-10-18T06:58:06.735Z,22.92
2022-10-18T07:00:33.249Z,27.83
2022-10-18T07:02:59.814Z,19.17
2022-10-18T07:05:26.417Z,18.17
2022-10-18T07:07:56.340Z,20.00
2022-10-18T07:10:23.996Z,19.27
2022-10-18T07:12:53.514Z,20.42
2022-10-18T07:15:24.534Z,21.10
2022-10-18T07:17:51.250Z,22.88
2022-10-18T07:20:17.845Z,21.27
2022-10-18T07:22:44.380Z,19.77
2022-10-18T07:25:12.359Z,20.17
2022-10-18T07:27:43.028Z,22.52
2022-10-18T07:30:11.029Z,22.33
2022-10-18T07:32:37.560Z,20.40
2022-10-18T07:35:04.594Z,20.88
2022-10-18T07:37:31.818Z,20.63
2022-10-18T07:39:58.595Z,22.42
2022-10-18T07:42:25.099Z,23.08
2022-10-18T07:44:51.663Z,21.67
2022-10-18T07:47:18.176Z,22.35
2022-10-18T07:49:44.716Z,22.08
2022-10-18T07:52:11.943Z,20.23
2022-10-18T07:54:42.695Z,21.00
2022-10-18T07:57:09.172Z,19.55
2022-10-18T07:59:35.676Z,19.98
2022-10-18T08:02:02.186Z,19.95
2022-10-18T08:04:30.298Z,19.40
2022-10-18T08:06:56.844Z,19.70
2022-10-18T08:09:23.354Z,20.08
2022-10-18T08:11:49.867Z,19.48
2022-10-18T08:14:17.295Z,19.42
2022-10-18T08:16:43.880Z,19.70
2022-10-18T08:19:10.673Z,20.73
2022-10-18T08:21:37.195Z,21.75
2022-10-18T08:24:05.610Z,23.48
2022-10-18T08:26:32.176Z,21.27
2022-10-18T08:29:17.763Z,21.17
2022-10-18T08:31:45.336Z,24.20
2022-10-18T08:34:19.511Z,24.08
2022-10-18T08:36:46.394Z,25.17
2022-10-18T08:39:12.905Z,23.23
2022-10-18T08:42:11.870Z,23.52
2022-10-18T08:44:49.567Z,20.40
2022-10-18T08:47:41.700Z,20.90
2022-10-18T08:50:16.279Z,18.90
2022-10-18T08:53:10.612Z,19.75
2022-10-18T08:55:45.328Z,20.00
2022-10-18T08:58:19.442Z,19.52
2022-10-18T09:01:23.470Z,16.90
2022-10-18T09:04:21.549Z,16.88
2022-10-18T09:07:16.522Z,15.80
2022-10-18T09:09:54.545Z,15.07
2022-10-18T09:12:45.507Z,15.32
2022-10-18T09:15:29.872Z,15.65
2022-10-18T09:18:04.654Z,13.40
2022-10-18T09:20:47.824Z,14.20
2022-10-18T09:23:23.043Z,15.48
2022-10-18T09:28:49.724Z,14.13
2022-10-18T09:31:28.798Z,14.75
2022-10-18T09:34:23.212Z,14.98
2022-10-18T09:36:52.458Z,14.90
2022-10-18T09:39:23.671Z,14.27
2022-10-18T09:41:57.785Z,13.68
2022-10-18T09:44:41.860Z,13.93
2022-10-18T09:47:16.815Z,12.13
2022-10-18T09:49:52.127Z,13.30
2022-10-18T09:52:42.423Z,13.15
2022-10-18T09:55:30.708Z,12.43
2022-10-18T09:58:02.415Z,12.65
2022-10-18T10:00:33.482Z,11.60
2022-10-18T10:03:01.919Z,12.75
2022-10-18T10:05:28.440Z,13.38
2022-10-18T10:07:59.806Z,12.88
2022-10-18T10:10:29.093Z,11.63
2022-10-18T10:13:17.289Z,11.43
2022-10-18T10:15:54.017Z,10.30
2022-10-18T10:18:23.353Z,9.15
2022-10-18T10:20:58.182Z,7.90
2022-10-18T10:23:33.012Z,8.95
2022-10-18T10:26:04.957Z,7.60
2022-10-18T10:28:37.498Z,7.72
2022-10-18T10:31:25.890Z,6.25
2022-10-18T10:34:13.144Z,5.90
2022-10-18T10:36:54.417Z,5.80
2022-10-18T10:39:23.697Z,6.10
2022-10-18T10:41:57.962Z,5.47
2022-10-18T10:44:32.121Z,6.40
2022-10-18T10:46:59.436Z,4.78
2022-10-18T10:49:47.509Z,6.03
2022-10-18T10:52:28.031Z,6.15
2022-10-18T10:55:11.368Z,6.47
2022-10-18T10:57:47.157Z,5.50
2022-10-18T11:00:52.253Z,5.15
2022-10-18T11:03:29.075Z,4.80
2022-10-18T11:06:01.842Z,5.10
2022-10-18T11:08:34.025Z,5.13
2022-10-18T11:11:26.698Z,3.55
2022-10-18T11:17:06.962Z,3.40
2022-10-18T11:19:43.093Z,3.65
2022-10-18T11:22:15.064Z,3.83
2022-10-18T11:24:43.534Z,3.58
2022-10-18T11:27:32.655Z,3.40
2022-10-18T11:30:21.043Z,3.20
2022-10-18T11:33:07.888Z,3.42
2022-10-18T11:35:47.434Z,2.80
2022-10-18T11:38:30.914Z,2.78
2022-10-18T11:41:23.425Z,3.13
2022-10-18T11:44:37.236Z,2.13
2022-10-18T11:47:37.027Z,1.90
2022-10-18T11:50:36.085Z,2.58
2022-10-18T11:53:17.978Z,3.13
2022-10-18T11:55:53.631Z,2.45
2022-10-18T11:59:11.599Z,2.58
2022-10-18T12:01:50.463Z,2.78
2022-10-18T12:04:27.949Z,2.78
2022-10-18T12:06:57.265Z,2.30
2022-10-18T12:09:28.779Z,2.30
2022-10-18T12:12:07.818Z,2.33
2022-10-18T12:14:42.397Z,2.05
2022-10-18T12:17:46.124Z,1.60
2022-10-18T12:20:26.018Z,2.10
2022-10-18T12:23:10.550Z,2.17
2022-10-18T12:25:45.582Z,2.22
2022-10-18T12:31:07.583Z,2.80
2022-10-18T12:33:38.580Z,2.80
2022-10-18T12:36:20.822Z,2.85
2022-10-18T12:39:11.518Z,2.38
2022-10-18T12:41:38.590Z,2.40
2022-10-18T12:44:20.989Z,2.10
2022-10-18T12:46:56.063Z,2.08
2022-10-18T12:52:24.749Z,1.80
2022-10-18T12:55:21.512Z,2.42
2022-10-18T12:57:54.135Z,1.85
2022-10-18T13:00:29.544Z,2.30
2022-10-18T13:03:14.329Z,1.83
2022-10-18T13:05:57.815Z,1.95
2022-10-18T13:08:27.071Z,2.17
2022-10-18T13:11:08.997Z,1.90
2022-10-18T13:13:59.703Z,1.85
2022-10-18T13:16:42.646Z,2.33
2022-10-18T13:19:34.847Z,1.67
2022-10-18T13:22:25.568Z,1.88
2022-10-18T13:25:13.372Z,2.22
2022-10-18T13:28:00.223Z,2.15
2022-10-18T13:30:50.991Z,1.92
2022-10-18T13:33:32.161Z,1.90
2022-10-18T13:36:04.034Z,2.45
2022-10-18T13:38:38.886Z,2.60
2022-10-18T13:41:32.774Z,2.35
2022-10-18T13:44:40.039Z,2.00
2022-10-18T13:47:07.095Z,2.70
2022-10-18T13:49:39.471Z,2.10
2022-10-18T13:52:31.360Z,2.08
2022-10-18T13:55:18.853Z,2.10
2022-10-18T13:58:07.834Z,2.35
2022-10-18T14:00:52.967Z,1.40
2022-10-18T14:03:58.532Z,1.83
2022-10-18T14:06:28.992Z,1.20
2022-10-18T14:12:35.712Z,1.48
2022-10-18T14:15:34.610Z,1.70
2022-10-18T14:18:12.381Z,1.60
2022-10-18T14:21:01.252Z,2.70
2022-10-18T14:23:35.173Z,4.15
2022-10-18T14:26:18.478Z,1.92
2022-10-18T14:28:59.594Z,1.35
2022-10-18T14:31:27.250Z,1.80
2022-10-18T14:33:58.895Z,2.30
2022-10-18T14:36:42.406Z,2.20
2022-10-18T14:39:21.062Z,1.80
2022-10-18T14:41:53.430Z,1.70
2022-10-18T14:44:31.417Z,1.45
2022-10-18T14:47:16.381Z,2.22
2022-10-18T14:49:44.850Z,1.50
2022-10-18T14:52:15.990Z,1.48
2022-10-18T14:54:47.074Z,1.90
2022-10-18T14:57:25.165Z,1.65
2022-10-18T14:59:57.060Z,1.50
2022-10-18T15:02:28.334Z,1.58
2022-10-18T15:05:20.650Z,1.30
2022-10-18T15:07:48.431Z,1.60
2022-10-18T15:10:20.028Z,1.80
2022-10-18T15:13:11.340Z,1.25
2022-10-18T15:15:35.070Z,2.10
2022-10-18T15:18:01.939Z,1.42
2022-10-18T15:20:31.871Z,1.40
2022-10-18T15:23:29.579Z,1.85
2022-10-18T15:26:08.216Z,1.90
2022-10-18T15:28:39.355Z,1.40
2022-10-18T15:31:06.866Z,1.30
2022-10-18T15:33:36.500Z,1.30
2022-10-18T15:36:26.062Z,1.40
2022-10-18T15:38:52.680Z,1.33
2022-10-18T15:41:39.512Z,1.00
2022-10-18T15:44:34.793Z,1.30
2022-10-18T15:47:13.410Z,1.27
2022-10-18T15:49:46.222Z,1.70
2022-10-18T15:52:21.952Z,1.75
2022-10-18T15:57:20.308Z,1.98
2022-10-18T15:59:54.923Z,1.25
2022-10-18T16:02:21.514Z,1.10
2022-10-18T16:04:49.806Z,1.40
2022-10-18T16:07:16.514Z,1.40
2022-10-18T16:09:43.250Z,1.70
2022-10-18T16:12:09.802Z,1.10
2022-10-18T16:14:37.930Z,1.88
2022-10-18T16:17:06.765Z,1.48
2022-10-18T16:19:33.851Z,1.48
2022-10-18T16:22:06.149Z,1.38
2022-10-18T16:24:33.941Z,1.25
2022-10-18T16:27:00.457Z,1.17
2022-10-18T16:29:31.876Z,1.38
2022-10-18T16:31:59.842Z,1.85
2022-10-18T16:34:29.453Z,1.40
2022-10-18T16:36:55.942Z,1.75
2022-10-18T16:39:23.423Z,1.70
2022-10-18T16:41:51.188Z,1.83
2022-10-18T16:44:20.051Z,1.60
2022-10-18T16:46:50.985Z,2.00
2022-10-18T16:49:24.032Z,1.80
2022-10-18T16:51:52.512Z,1.75
2022-10-18T16:54:23.670Z,1.90
2022-10-18T16:56:51.102Z,1.80
2022-10-18T16:59:28.937Z,2.50
2022-10-18T17:01:55.727Z,1.85
2022-10-18T17:04:27.232Z,2.10
2022-10-18T17:06:55.255Z,1.92
2022-10-18T17:09:22.117Z,2.05
2022-10-18T17:11:53.742Z,1.70
2022-10-18T17:14:21.864Z,1.67
2022-10-18T17:16:52.297Z,1.80
2022-10-18T17:19:22.380Z,1.80
2022-10-18T17:21:49.168Z,1.50
2022-10-18T17:24:16.970Z,1.80
2022-10-18T17:26:43.554Z,1.67
2022-10-18T17:29:10.100Z,1.90
2022-10-18T17:31:36.887Z,1.83
2022-10-18T17:34:08.905Z,1.65
2022-10-18T17:36:35.647Z,2.05
2022-10-18T17:39:02.907Z,1.67
2022-10-18T17:41:29.432Z,1.55
2022-10-18T17:44:05.707Z,2.13
2022-10-18T17:46:32.209Z,2.05
2022-10-18T17:48:58.725Z,2.33
2022-10-18T17:51:25.174Z,2.63
2022-10-18T17:53:58.986Z,3.67
2022-10-18T17:56:30.987Z,2.80
2022-10-18T17:58:57.432Z,2.78
2022-10-18T18:01:23.985Z,2.20
2022-10-18T18:04:02.610Z,1.77
2022-10-18T18:06:33.790Z,1.63
2022-10-18T18:09:04.929Z,1.73
2022-10-18T18:11:31.450Z,2.03
2022-10-18T18:14:02.247Z,2.03
2022-10-18T18:16:29.952Z,2.47
2022-10-18T18:18:58.291Z,2.40
2022-10-18T18:21:26.453Z,1.60
2022-10-18T18:24:14.064Z,2.15
2022-10-18T18:26:40.778Z,2.30
2022-10-18T18:29:07.502Z,2.38
2022-10-18T18:31:38.845Z,1.70
2022-10-18T18:34:13.078Z,1.90
2022-10-18T18:36:40.288Z,1.73
2022-10-18T18:39:08.787Z,2.47
2022-10-18T18:41:37.318Z,2.33
2022-10-18T18:44:08.046Z,2.30
2022-10-18T18:46:38.903Z,2.20
2022-10-18T18:49:08.045Z,2.30
2022-10-18T18:51:37.393Z,2.78
2022-10-18T18:54:05.593Z,2.22
2022-10-18T18:56:32.209Z,2.20
2022-10-18T18:58:59.441Z,2.65
2022-10-18T19:01:29.654Z,2.75
2022-10-18T19:04:06.198Z,2.30
2022-10-18T19:06:38.671Z,2.85
2022-10-18T19:09:18.657Z,2.20
2022-10-18T19:11:46.971Z,2.50
2022-10-18T19:14:15.407Z,2.40
2022-10-18T19:16:47.816Z,2.10
2022-10-18T19:19:18.206Z,2.22
2022-10-18T19:21:51.375Z,2.35
2022-10-18T19:24:23.999Z,2.30
2022-10-18T19:26:53.163Z,2.55
2022-10-18T19:29:25.529Z,2.67
2022-10-18T19:31:53.844Z,2.33
2022-10-18T19:34:24.699Z,2.20
2022-10-18T19:36:51.664Z,2.63
2022-10-18T19:39:21.234Z,2.17
2022-10-18T19:41:50.618Z,2.15
2022-10-18T19:44:19.622Z,2.72
2022-10-18T19:46:46.870Z,2.85
2022-10-18T19:49:13.614Z,11.77
2022-10-18T19:51:40.934Z,3.33
2022-10-18T19:54:12.956Z,2.55
2022-10-18T19:56:41.635Z,2.90
2022-10-18T19:59:09.242Z,2.97
2022-10-18T20:01:35.914Z,3.20
2022-10-18T20:04:08.354Z,3.38
2022-10-18T20:06:36.449Z,3.47
2022-10-18T20:09:03.440Z,2.72
2022-10-18T20:11:30.274Z,2.55
2022-10-18T20:14:06.222Z,2.95
2022-10-18T20:16:34.111Z,3.00
2022-10-18T20:19:02.951Z,3.60
2022-10-18T20:21:35.348Z,3.10
2022-10-18T20:24:07.447Z,3.50
2022-10-18T20:26:35.705Z,3.25
2022-10-18T20:29:02.404Z,3.53
2022-10-18T20:31:31.043Z,3.10
2022-10-18T20:34:04.129Z,2.92
2022-10-18T20:36:32.482Z,3.10
2022-10-18T20:39:00.138Z,3.10
2022-10-18T20:41:29.274Z,3.13
2022-10-18T20:44:03.736Z,3.03
2022-10-18T20:46:32.571Z,2.87
2022-10-18T20:48:59.074Z,3.78
2022-10-18T20:51:25.714Z,3.80
2022-10-18T20:54:08.479Z,4.03
2022-10-18T20:56:36.547Z,4.47
2022-10-18T20:59:06.154Z,3.88
2022-10-18T21:01:34.214Z,4.25
2022-10-18T21:04:08.883Z,4.40
2022-10-18T21:06:42.606Z,4.45
2022-10-18T21:09:14.019Z,3.92
2022-10-18T21:11:42.970Z,3.20
2022-10-18T21:14:19.539Z,3.67
2022-10-18T21:16:46.595Z,3.88
2022-10-18T21:19:17.082Z,3.53
2022-10-18T21:21:45.903Z,4.55
2022-10-18T21:24:16.815Z,3.70
2022-10-18T21:26:43.876Z,3.80
2022-10-18T21:29:11.916Z,3.83
2022-10-18T21:31:40.228Z,3.70
2022-10-18T21:34:15.170Z,4.05
2022-10-18T21:36:43.506Z,4.85
2022-10-18T21:39:18.643Z,4.38
2022-10-18T21:41:45.985Z,4.07
2022-10-18T21:44:14.373Z,3.78
2022-10-18T21:46:43.087Z,4.18
2022-10-18T21:49:10.368Z,3.83
2022-10-18T21:51:37.686Z,3.80
2022-10-18T21:54:08.731Z,3.55
2022-10-18T21:56:35.794Z,2.95
2022-10-18T21:59:03.013Z,3.13
2022-10-18T22:01:32.486Z,3.35
2022-10-18T22:04:03.301Z,3.75
2022-10-18T22:06:32.780Z,3.70
2022-10-18T22:09:01.948Z,4.13
2022-10-18T22:11:33.361Z,3.42
2022-10-18T22:14:01.973Z,3.58
2022-10-18T22:16:28.628Z,3.13
2022-10-18T22:19:00.975Z,3.45
2022-10-18T22:21:28.116Z,3.05
2022-10-18T22:23:59.726Z,2.90
2022-10-18T22:26:28.853Z,3.15
2022-10-18T22:29:01.103Z,3.20
2022-10-18T22:31:30.523Z,2.90
2022-10-18T22:34:07.732Z,3.50
2022-10-18T22:36:35.029Z,4.10
2022-10-18T22:39:05.453Z,4.00
2022-10-18T22:41:32.588Z,3.53
2022-10-18T22:44:04.744Z,3.22
2022-10-18T22:46:32.901Z,3.10
2022-10-18T22:48:59.734Z,2.30
2022-10-18T22:51:26.314Z,2.95
2022-10-18T22:54:13.282Z,2.17
2022-10-18T22:56:39.839Z,1.80
2022-10-18T22:59:06.319Z,1.40
2022-10-18T23:01:32.837Z,1.65
2022-10-18T23:04:04.496Z,1.80
2022-10-18T23:06:33.577Z,2.40
2022-10-18T23:09:04.833Z,2.30
2022-10-18T23:11:32.183Z,2.40
2022-10-18T23:14:04.752Z,1.60
2022-10-18T23:16:31.761Z,1.40
2022-10-18T23:18:59.108Z,1.70
2022-10-18T23:21:27.932Z,1.90
2022-10-18T23:23:58.761Z,2.40
2022-10-18T23:26:27.806Z,2.10
2022-10-18T23:28:54.813Z,1.73
2022-10-18T23:31:30.268Z,1.67
2022-10-18T23:36:29.290Z,2.58
2022-10-18T23:38:56.423Z,2.25
2022-10-18T23:41:23.973Z,3.38
2022-10-18T23:43:50.682Z,3.20
2022-10-18T23:46:20.946Z,3.60
2022-10-18T23:48:48.362Z,3.35
2022-10-18T23:51:15.692Z,3.22
2022-10-18T23:53:42.535Z,3.03
2022-10-18T23:56:14.506Z,2.70
2022-10-18T23:58:41.967Z,2.60
